Gelius 2 — UGJP — position and weather

sailwx.info

Track history (hours):
 
Tides and Currents Weather Stations Pressure Air Temp Water Temp Dewpoint Dewpoint Depression Visibility Wind Speed Wind Dir Waves Ship Positions

Gelius 2

Last reported at 2017-Oct-18 08:00 UTC. Time now 2017-Oct-18 15:18 UTC.
Position N 45°06' E 036°30'.

Length 90 m; draft 4.3 m.

Type: Cargo ship. MMSI: 273358650.

Date/timePositionNaut miles runAvg speedWind from/ knotsBaromVisibWave heightAir tempDewpointWater temp
2017-Oct-18 08:00N 45°06' E 036°30'4 7.9
2017-Oct-18 07:30N 45°09' E 036°28'4 8.2
2017-Oct-18 07:00N 45°13' E 036°28'4 7.3
2017-Oct-18 06:30N 45°17' E 036°28'4 8.6
2017-Oct-18 06:00N 45°19' E 036°33'5 9.0
2017-Oct-18 05:30N 45°21' E 036°39'3 6.9
2017-Oct-18 05:00N 45°24' E 036°41'3 6.9
2017-Oct-18 04:30N 45°28' E 036°39'2 3.2
2017-Oct-18 03:53N 45°29' E 036°37'0 0.0
2017-Oct-18 03:29N 45°29' E 036°37'0 0.0
2017-Oct-18 02:56N 45°29' E 036°37'0 0.0
2017-Oct-18 02:29N 45°29' E 036°37'0 0.0
2017-Oct-18 01:17N 45°29' E 036°37'0 0.0
2017-Oct-18 00:47N 45°29' E 036°37'0 0.0
2017-Oct-18 00:29N 45°29' E 036°37'0 0.0
2017-Oct-17 23:47N 45°29' E 036°37'0 0.0
2017-Oct-17 23:17N 45°29' E 036°37'0 0.0
2017-Oct-17 22:53N 45°29' E 036°37'0 0.0
2017-Oct-17 22:29N 45°29' E 036°37'0 0.0
2017-Oct-17 21:59N 45°29' E 036°37'0 0.0
2017-Oct-17 21:29N 45°29' E 036°37'0 0.0
2017-Oct-17 20:59N 45°29' E 036°37'0 0.0
2017-Oct-17 20:11N 45°29' E 036°37'0 0.0
2017-Oct-17 19:53N 45°29' E 036°37'0 0.0
2017-Oct-17 19:11N 45°29' E 036°37'0 0.2
2017-Oct-17 19:00N 45°29' E 036°37'1 2.8
2017-Oct-17 18:30N 45°30' E 036°39'4 7.3
2017-Oct-17 18:00N 45°32' E 036°43'  
2017-Oct-08 20:43N 45°36' E 036°51'2 8.4
2017-Oct-08 20:29N 45°34' E 036°50'4 8.8
2017-Oct-08 20:00N 45°31' E 036°46'4 8.2
2017-Oct-08 19:30N 45°28' E 036°43'4 7.9
2017-Oct-08 19:00N 45°24' E 036°41'4 7.4
2017-Oct-08 18:30N 45°21' E 036°38'5 9.9
2017-Oct-08 18:00N 45°19' E 036°32'3 6.6
2017-Oct-08 17:29N 45°16' E 036°29'3 5.3
2017-Oct-08 17:00N 45°14' E 036°29'2 5.0
2017-Oct-08 16:30N 45°11' E 036°28'6 3.5
2017-Oct-08 14:55N 45°06' E 036°31'0 0.5
2017-Oct-08 14:20N 45°06' E 036°31'0 0.1
2017-Oct-08 13:53N 45°06' E 036°31'0 0.0
2017-Oct-08 13:29N 45°06' E 036°31'0 0.0
2017-Oct-08 12:59N 45°06' E 036°31'0 0.0
2017-Oct-08 12:26N 45°06' E 036°31'0 0.0
2017-Oct-08 11:56N 45°06' E 036°31'0 0.0
2017-Oct-08 11:29N 45°06' E 036°31'  
Track history (hours):
 
Tides and Currents Weather Stations Pressure Air Temp Water Temp Dewpoint Dewpoint Depression Visibility Wind Speed Wind Dir Waves Ship Positions

Gelius 2

Last reported at 2017-Oct-18 08:00 UTC. Time now 2017-Oct-18 15:18 UTC.
Position N 45°06' E 036°30'.

Length 90 m; draft 4.3 m.

Type: Cargo ship. MMSI: 273358650.

Date/timePositionNaut miles runAvg speedWind from/ knotsBaromVisibWave heightAir tempDewpointWater temp
2017-Oct-18 08:00N 45°06' E 036°30'4 7.9
2017-Oct-18 07:30N 45°09' E 036°28'4 8.2
2017-Oct-18 07:00N 45°13' E 036°28'4 7.3
2017-Oct-18 06:30N 45°17' E 036°28'4 8.6
2017-Oct-18 06:00N 45°19' E 036°33'5 9.0
2017-Oct-18 05:30N 45°21' E 036°39'3 6.9
2017-Oct-18 05:00N 45°24' E 036°41'3 6.9
2017-Oct-18 04:30N 45°28' E 036°39'2 3.2
2017-Oct-18 03:53N 45°29' E 036°37'0 0.0
2017-Oct-18 03:29N 45°29' E 036°37'0 0.0
2017-Oct-18 02:56N 45°29' E 036°37'0 0.0
2017-Oct-18 02:29N 45°29' E 036°37'0 0.0
2017-Oct-18 01:17N 45°29' E 036°37'0 0.0
2017-Oct-18 00:47N 45°29' E 036°37'0 0.0
2017-Oct-18 00:29N 45°29' E 036°37'0 0.0
2017-Oct-17 23:47N 45°29' E 036°37'0 0.0
2017-Oct-17 23:17N 45°29' E 036°37'0 0.0
2017-Oct-17 22:53N 45°29' E 036°37'0 0.0
2017-Oct-17 22:29N 45°29' E 036°37'0 0.0
2017-Oct-17 21:59N 45°29' E 036°37'0 0.0
2017-Oct-17 21:29N 45°29' E 036°37'0 0.0
2017-Oct-17 20:59N 45°29' E 036°37'0 0.0
2017-Oct-17 20:11N 45°29' E 036°37'0 0.0
2017-Oct-17 19:53N 45°29' E 036°37'0 0.0
2017-Oct-17 19:11N 45°29' E 036°37'0 0.2
2017-Oct-17 19:00N 45°29' E 036°37'1 2.8
2017-Oct-17 18:30N 45°30' E 036°39'4 7.3
2017-Oct-17 18:00N 45°32' E 036°43'  
2017-Oct-08 20:43N 45°36' E 036°51'2 8.4
2017-Oct-08 20:29N 45°34' E 036°50'4 8.8
2017-Oct-08 20:00N 45°31' E 036°46'4 8.2
2017-Oct-08 19:30N 45°28' E 036°43'4 7.9
2017-Oct-08 19:00N 45°24' E 036°41'4 7.4
2017-Oct-08 18:30N 45°21' E 036°38'5 9.9
2017-Oct-08 18:00N 45°19' E 036°32'3 6.6
2017-Oct-08 17:29N 45°16' E 036°29'3 5.3
2017-Oct-08 17:00N 45°14' E 036°29'2 5.0
2017-Oct-08 16:30N 45°11' E 036°28'6 3.5
2017-Oct-08 14:55N 45°06' E 036°31'0 0.5
2017-Oct-08 14:20N 45°06' E 036°31'0 0.1
2017-Oct-08 13:53N 45°06' E 036°31'0 0.0
2017-Oct-08 13:29N 45°06' E 036°31'0 0.0
2017-Oct-08 12:59N 45°06' E 036°31'0 0.0
2017-Oct-08 12:26N 45°06' E 036°31'0 0.0
2017-Oct-08 11:56N 45°06' E 036°31'0 0.0
2017-Oct-08 11:29N 45°06' E 036°31'  

Dump ship's entire track history